Washington, District of Columbia
Traffic Map
Current Weather Conditions
Washington, District of Columbia
Scattered Clouds
Scattered Clouds
28°
Feels Like: 30°
Wind Chill: 28° Ceiling: Unl
Heat Index: 30° Visibility: 10mi
Dew Point: 21° Wind: 8mph
Humidity: 65% Direction: 170° (S)
Pressure: 30.18in Gusts: 0mph
Raw Report DataKDCA 221452Z 17007KT 10SM SCT031 SCT050 SCT250 28/21 A3018 RMK AO2 SLP221 T02780206 58005
Traffic Incident Summary
Active as of:
Severity:
Category:
InformationThere was an issue retrieving the traffic information for this location. Please try a different location or try again shortly.
Advertisements
Track Severe Weather on mobile